createdAt,value
2018-07-15T00:00:21.712Z,17.57
2018-07-15T00:02:50.026Z,17.56
2018-07-15T00:05:18.352Z,17.54
2018-07-15T00:07:46.671Z,17.57
2018-07-15T00:10:15.010Z,17.55
2018-07-15T00:12:43.334Z,17.46
2018-07-15T00:15:11.646Z,17.47
2018-07-15T00:17:39.960Z,17.45
2018-07-15T00:20:08.305Z,17.44
2018-07-15T00:22:36.653Z,17.45
2018-07-15T00:25:04.977Z,17.43
2018-07-15T00:27:33.297Z,17.38
2018-07-15T00:30:01.614Z,17.41
2018-07-15T00:32:29.931Z,17.37
2018-07-15T00:34:58.237Z,17.31
2018-07-15T00:37:26.565Z,17.28
2018-07-15T00:39:54.901Z,17.26
2018-07-15T00:42:23.218Z,17.29
2018-07-15T00:44:51.536Z,17.22
2018-07-15T00:47:19.862Z,17.19
2018-07-15T00:49:48.169Z,17.11
2018-07-15T00:52:16.492Z,17.08
2018-07-15T00:54:44.828Z,17.08
2018-07-15T00:57:13.155Z,17.06
2018-07-15T00:59:41.466Z,17.03
2018-07-15T01:02:09.779Z,16.96
2018-07-15T01:04:38.123Z,16.98
2018-07-15T01:07:06.445Z,16.90
2018-07-15T01:09:34.790Z,16.86
2018-07-15T01:12:03.136Z,16.82
2018-07-15T01:14:31.472Z,16.76
2018-07-15T01:16:59.780Z,16.82
2018-07-15T01:19:28.120Z,16.87
2018-07-15T01:21:56.420Z,16.83
2018-07-15T01:24:24.727Z,16.75
2018-07-15T01:26:53.038Z,16.70
2018-07-15T01:29:21.363Z,16.73
2018-07-15T01:31:49.689Z,16.68
2018-07-15T01:34:18.077Z,16.58
2018-07-15T01:36:46.404Z,16.60
2018-07-15T01:39:14.729Z,16.60
2018-07-15T01:41:43.227Z,16.57
2018-07-15T01:44:11.545Z,16.53
2018-07-15T01:46:39.929Z,16.48
2018-07-15T01:49:08.354Z,16.46
2018-07-15T01:51:36.679Z,16.42
2018-07-15T01:54:05.055Z,16.40
2018-07-15T01:56:33.383Z,16.34
2018-07-15T01:59:01.807Z,16.33
2018-07-15T02:01:30.141Z,16.32
2018-07-15T02:03:58.458Z,16.29
2018-07-15T02:06:26.867Z,16.25
2018-07-15T02:08:55.208Z,16.24
2018-07-15T02:11:23.541Z,16.23
2018-07-15T02:13:51.919Z,16.19
2018-07-15T02:16:20.245Z,16.11
2018-07-15T02:18:48.559Z,16.07
2018-07-15T02:21:16.938Z,16.04
2018-07-15T02:23:45.281Z,16.01
2018-07-15T02:26:13.621Z,16.04
2018-07-15T02:28:41.927Z,16.01
2018-07-15T02:31:10.243Z,16.02
2018-07-15T02:33:39.584Z,15.96
2018-07-15T02:36:07.929Z,15.99
2018-07-15T02:38:36.574Z,15.97
2018-07-15T02:41:04.907Z,15.94
2018-07-15T02:43:33.224Z,15.93
2018-07-15T02:46:01.552Z,15.92
2018-07-15T02:48:29.893Z,15.93
2018-07-15T02:50:58.206Z,15.93
2018-07-15T02:53:26.536Z,15.87
2018-07-15T02:55:54.878Z,15.81
2018-07-15T02:58:23.315Z,15.79
2018-07-15T03:00:51.667Z,15.78
2018-07-15T03:03:20.031Z,15.74
2018-07-15T03:05:48.343Z,15.77
2018-07-15T03:08:16.658Z,15.79
2018-07-15T03:10:45.000Z,15.74
2018-07-15T03:13:13.312Z,15.77
2018-07-15T03:15:41.652Z,15.73
2018-07-15T03:18:09.982Z,15.68
2018-07-15T03:20:38.309Z,15.70
2018-07-15T03:23:06.782Z,15.70
2018-07-15T03:25:35.101Z,15.64
2018-07-15T03:28:03.410Z,15.66
2018-07-15T03:30:31.729Z,15.62
2018-07-15T03:33:00.069Z,15.65
2018-07-15T03:35:28.374Z,15.70
2018-07-15T03:37:56.692Z,15.63
2018-07-15T03:40:25.043Z,15.65
2018-07-15T03:42:53.353Z,15.70
2018-07-15T03:45:21.652Z,15.69
2018-07-15T03:47:49.988Z,15.67
2018-07-15T03:50:18.338Z,15.67
2018-07-15T03:52:46.664Z,15.70
2018-07-15T03:55:15.027Z,15.66
2018-07-15T03:57:43.366Z,15.73
2018-07-15T04:00:11.713Z,15.76
2018-07-15T04:02:40.033Z,15.82
2018-07-15T04:05:08.357Z,15.87
2018-07-15T04:07:36.708Z,15.89
2018-07-15T04:10:05.331Z,15.99
2018-07-15T04:12:33.666Z,15.96
2018-07-15T04:15:01.980Z,16.02
2018-07-15T04:17:30.325Z,16.11
2018-07-15T04:19:58.692Z,16.21
2018-07-15T04:22:27.020Z,16.23
2018-07-15T04:24:55.380Z,16.31
2018-07-15T04:27:23.675Z,16.39
2018-07-15T04:29:51.993Z,16.45
2018-07-15T04:32:20.335Z,16.49
2018-07-15T04:34:48.660Z,16.59
2018-07-15T04:37:17.008Z,16.63
2018-07-15T04:39:45.352Z,16.61
2018-07-15T04:42:13.697Z,16.63
2018-07-15T04:44:42.024Z,16.68
2018-07-15T04:47:10.351Z,16.76
2018-07-15T04:49:38.665Z,16.89
2018-07-15T04:52:07.011Z,16.98
2018-07-15T04:54:35.370Z,16.99
2018-07-15T04:57:03.716Z,17.09
2018-07-15T04:59:32.058Z,17.17
2018-07-15T05:02:00.457Z,17.27
2018-07-15T05:04:28.767Z,17.32
2018-07-15T05:06:57.107Z,17.41
2018-07-15T05:09:25.446Z,17.43
2018-07-15T05:11:53.757Z,17.48
2018-07-15T05:14:22.117Z,17.57
2018-07-15T05:16:50.441Z,17.65
2018-07-15T05:19:18.760Z,17.79
2018-07-15T05:21:47.084Z,17.89
2018-07-15T05:24:15.463Z,17.94
2018-07-15T05:26:43.799Z,18.06
2018-07-15T05:29:12.148Z,18.12
2018-07-15T05:31:40.482Z,18.17
2018-07-15T05:34:08.809Z,18.28
2018-07-15T05:36:37.139Z,18.37
2018-07-15T05:39:05.940Z,18.36
2018-07-15T05:41:34.279Z,18.44
2018-07-15T05:44:02.617Z,18.58
2018-07-15T05:46:30.977Z,18.67
2018-07-15T05:48:59.312Z,18.78
2018-07-15T05:51:27.644Z,18.86
2018-07-15T05:53:55.986Z,18.89
2018-07-15T05:56:24.295Z,19.02
2018-07-15T05:58:52.606Z,19.15
2018-07-15T06:01:20.948Z,19.24
2018-07-15T06:03:49.284Z,19.35
2018-07-15T06:06:17.617Z,19.58
2018-07-15T06:08:45.936Z,19.69
2018-07-15T06:11:14.248Z,19.83
2018-07-15T06:13:42.651Z,20.02
2018-07-15T06:16:11.024Z,20.27
2018-07-15T06:18:39.354Z,20.53
2018-07-15T06:21:07.687Z,20.76
2018-07-15T06:23:36.017Z,21.19
2018-07-15T06:26:04.362Z,21.78
2018-07-15T06:28:32.753Z,22.49
2018-07-15T06:31:01.113Z,22.95
2018-07-15T06:33:29.463Z,23.53
2018-07-15T06:35:57.802Z,24.13
2018-07-15T06:38:26.147Z,24.98
2018-07-15T06:40:54.464Z,25.69
2018-07-15T06:43:22.808Z,25.92
2018-07-15T06:45:51.120Z,26.68
2018-07-15T06:48:19.566Z,26.96
2018-07-15T06:50:47.868Z,27.57
2018-07-15T06:53:16.481Z,27.70
2018-07-15T06:55:44.838Z,27.92
2018-07-15T06:58:13.169Z,28.40
2018-07-15T07:00:41.688Z,28.73
2018-07-15T07:03:10.083Z,29.22
2018-07-15T07:05:38.448Z,29.97
2018-07-15T07:08:06.807Z,30.31
2018-07-15T07:10:35.162Z,30.12
2018-07-15T07:13:03.499Z,30.94
2018-07-15T07:15:31.843Z,31.28
2018-07-15T07:18:00.177Z,32.12
2018-07-15T07:20:28.567Z,31.32
2018-07-15T07:22:56.915Z,32.37
2018-07-15T07:25:25.280Z,32.30
2018-07-15T07:27:53.648Z,32.31
2018-07-15T07:30:22.053Z,32.34
2018-07-15T07:32:50.394Z,32.79
2018-07-15T07:35:18.789Z,34.04
2018-07-15T07:37:47.152Z,33.52
2018-07-15T07:40:15.535Z,34.15
2018-07-15T07:42:43.906Z,33.52
2018-07-15T07:45:12.253Z,32.96
2018-07-15T07:47:40.597Z,33.35
2018-07-15T07:50:08.938Z,33.78
2018-07-15T07:52:37.252Z,33.66
2018-07-15T07:55:05.828Z,33.90
2018-07-15T07:57:34.165Z,33.63
2018-07-15T08:00:02.502Z,33.79
2018-07-15T08:02:30.924Z,34.20
2018-07-15T08:04:59.240Z,33.67
2018-07-15T08:07:27.596Z,33.61
2018-07-15T08:09:55.913Z,33.27
2018-07-15T08:12:24.224Z,34.59
2018-07-15T08:14:52.579Z,34.62
2018-07-15T08:17:20.941Z,34.28
2018-07-15T08:19:49.509Z,32.79
2018-07-15T08:22:17.837Z,33.57
2018-07-15T08:24:46.150Z,32.73
2018-07-15T08:27:14.481Z,32.22
2018-07-15T08:29:54.304Z,32.67
2018-07-15T08:32:22.636Z,32.11
2018-07-15T08:34:51.000Z,30.67
2018-07-15T08:37:19.333Z,31.95
2018-07-15T08:39:47.693Z,33.27
2018-07-15T08:42:16.036Z,34.91
2018-07-15T08:44:44.378Z,33.40
2018-07-15T08:47:12.726Z,33.24
2018-07-15T08:49:41.034Z,31.16
2018-07-15T08:52:09.428Z,30.72
2018-07-15T08:54:37.712Z,31.68
2018-07-15T08:57:06.033Z,32.88
2018-07-15T08:59:34.358Z,33.75
2018-07-15T09:02:02.697Z,35.20
2018-07-15T09:04:31.022Z,35.41
2018-07-15T09:06:59.344Z,35.46
2018-07-15T09:09:27.658Z,35.57
2018-07-15T09:11:56.001Z,34.62
2018-07-15T09:14:24.351Z,32.85
2018-07-15T09:16:52.981Z,35.09
2018-07-15T09:19:21.328Z,34.43
2018-07-15T09:21:49.649Z,36.26
2018-07-15T09:24:18.006Z,35.94
2018-07-15T09:26:46.345Z,35.59
2018-07-15T09:29:14.707Z,37.76
2018-07-15T09:31:43.035Z,37.63
2018-07-15T09:34:11.349Z,38.45
2018-07-15T09:36:39.673Z,37.91
2018-07-15T09:39:08.273Z,38.38
2018-07-15T09:41:36.621Z,38.37
2018-07-15T09:44:04.932Z,39.15
2018-07-15T09:46:33.260Z,38.75
2018-07-15T09:49:01.581Z,38.72
2018-07-15T09:51:29.896Z,39.12
2018-07-15T09:53:58.278Z,39.04
2018-07-15T09:56:26.587Z,39.10
2018-07-15T09:58:54.926Z,39.59
2018-07-15T10:01:23.247Z,38.66
2018-07-15T10:03:51.580Z,38.73
2018-07-15T10:06:19.893Z,39.63
2018-07-15T10:08:48.212Z,40.11
2018-07-15T10:11:16.596Z,40.13
2018-07-15T10:13:44.925Z,39.10
2018-07-15T10:16:13.251Z,38.27
2018-07-15T10:18:41.651Z,37.85
2018-07-15T10:21:10.009Z,36.43
2018-07-15T10:23:38.337Z,36.99
2018-07-15T10:26:06.680Z,37.99
2018-07-15T10:28:35.008Z,38.12
2018-07-15T10:31:03.403Z,38.58
2018-07-15T10:33:31.715Z,37.89
2018-07-15T10:36:00.069Z,38.37
2018-07-15T10:38:28.388Z,38.86
2018-07-15T10:40:56.724Z,38.19
2018-07-15T10:43:25.074Z,37.33
2018-07-15T10:45:53.410Z,37.36
2018-07-15T10:48:21.867Z,37.39
2018-07-15T10:50:50.300Z,36.36
2018-07-15T10:53:18.613Z,35.47
2018-07-15T10:55:46.944Z,34.11
2018-07-15T10:58:15.355Z,33.52
2018-07-15T11:00:43.682Z,32.23
2018-07-15T11:03:12.040Z,32.14
2018-07-15T11:05:40.384Z,31.37
2018-07-15T11:08:08.719Z,30.38
2018-07-15T11:10:37.044Z,29.92
2018-07-15T11:13:05.489Z,29.60
2018-07-15T11:15:33.828Z,28.92
2018-07-15T11:18:02.148Z,28.96
2018-07-15T11:20:30.493Z,28.82
2018-07-15T11:22:58.850Z,28.33
2018-07-15T11:25:27.203Z,28.19
2018-07-15T11:27:55.552Z,28.20
2018-07-15T11:30:23.908Z,27.78
2018-07-15T11:32:52.248Z,27.51
2018-07-15T11:35:20.611Z,27.18
2018-07-15T11:37:48.959Z,27.33
2018-07-15T11:40:17.271Z,26.98
2018-07-15T11:42:46.414Z,26.64
2018-07-15T11:45:14.760Z,26.49
2018-07-15T11:47:43.099Z,26.35
2018-07-15T11:50:11.433Z,26.36
2018-07-15T11:52:39.844Z,26.14
2018-07-15T11:55:08.221Z,26.23
2018-07-15T11:57:36.904Z,26.06
2018-07-15T12:00:05.762Z,25.64
2018-07-15T12:02:34.088Z,25.60
2018-07-15T12:05:02.435Z,25.51
2018-07-15T12:07:30.805Z,25.55
2018-07-15T12:09:59.152Z,25.54
2018-07-15T12:12:27.489Z,25.49
2018-07-15T12:14:55.852Z,25.33
2018-07-15T12:17:24.201Z,25.44
2018-07-15T12:19:52.537Z,25.32
2018-07-15T12:22:20.873Z,25.11
2018-07-15T12:24:49.230Z,25.28
2018-07-15T12:27:17.576Z,25.23
2018-07-15T12:29:45.910Z,25.12
2018-07-15T12:32:14.233Z,25.03
2018-07-15T12:34:42.579Z,24.90
2018-07-15T12:37:10.913Z,25.04
2018-07-15T12:39:39.264Z,24.98
2018-07-15T12:42:07.852Z,25.07
2018-07-15T12:44:36.173Z,25.10
2018-07-15T12:47:04.530Z,24.87
2018-07-15T12:49:32.855Z,24.95
2018-07-15T12:52:01.262Z,24.89
2018-07-15T12:54:29.543Z,24.78
2018-07-15T12:56:57.882Z,24.75
2018-07-15T12:59:26.224Z,24.79
2018-07-15T13:01:54.562Z,24.82
2018-07-15T13:04:22.892Z,24.90
2018-07-15T13:06:51.231Z,24.66
2018-07-15T13:09:19.580Z,24.77
2018-07-15T13:11:47.913Z,24.83
2018-07-15T13:14:16.281Z,24.78
2018-07-15T13:16:44.629Z,24.83
2018-07-15T13:19:12.959Z,24.86
2018-07-15T13:21:41.298Z,24.78
2018-07-15T13:24:09.635Z,24.89
2018-07-15T13:26:37.953Z,24.85
2018-07-15T13:29:06.309Z,24.96
2018-07-15T13:31:34.652Z,25.07
2018-07-15T13:34:02.988Z,25.11
2018-07-15T13:36:31.328Z,25.18
2018-07-15T13:38:59.692Z,25.25
2018-07-15T13:41:28.079Z,25.39
2018-07-15T13:43:56.394Z,25.47
2018-07-15T13:46:24.757Z,25.44
2018-07-15T13:48:53.094Z,25.34
2018-07-15T13:51:21.415Z,25.33
2018-07-15T13:53:49.760Z,25.33
2018-07-15T13:56:18.096Z,25.27
2018-07-15T13:58:46.475Z,25.32
2018-07-15T14:01:14.826Z,25.26
2018-07-15T14:03:43.151Z,25.10
2018-07-15T14:06:11.467Z,24.93
2018-07-15T14:08:39.910Z,24.97
2018-07-15T14:11:08.269Z,25.05
2018-07-15T14:13:36.619Z,25.01
2018-07-15T14:16:04.997Z,24.98
2018-07-15T14:18:33.370Z,24.92
2018-07-15T14:21:01.780Z,24.84
2018-07-15T14:23:30.132Z,24.81
2018-07-15T14:25:58.495Z,24.81
2018-07-15T14:28:26.837Z,24.83
2018-07-15T14:30:55.188Z,24.82
2018-07-15T14:33:23.536Z,24.87
2018-07-15T14:35:51.867Z,24.90
2018-07-15T14:38:20.207Z,24.88
2018-07-15T14:40:48.564Z,24.86
2018-07-15T14:43:16.899Z,24.87
2018-07-15T14:45:47.109Z,24.87
2018-07-15T14:48:15.465Z,24.83
2018-07-15T14:50:44.308Z,24.84
2018-07-15T14:53:12.635Z,24.84
2018-07-15T14:55:41.083Z,24.85
2018-07-15T14:58:10.834Z,24.89
2018-07-15T15:00:39.204Z,24.87
2018-07-15T15:03:07.753Z,24.83
2018-07-15T15:05:36.120Z,24.83
2018-07-15T15:08:04.512Z,24.79
2018-07-15T15:10:32.948Z,24.76
2018-07-15T15:13:01.940Z,24.77
2018-07-15T15:15:30.542Z,24.81
2018-07-15T15:17:58.916Z,24.76
2018-07-15T15:20:27.271Z,24.76
2018-07-15T15:22:55.690Z,24.76
2018-07-15T15:25:24.071Z,24.75
2018-07-15T15:27:52.428Z,24.77
2018-07-15T15:30:20.766Z,24.73
2018-07-15T15:32:49.124Z,24.71
2018-07-15T15:35:17.473Z,24.73
2018-07-15T15:37:45.917Z,24.70
2018-07-15T15:40:14.289Z,24.69
2018-07-15T15:42:42.618Z,24.68
2018-07-15T15:45:10.988Z,24.66
2018-07-15T15:47:39.398Z,24.67
2018-07-15T15:50:07.782Z,24.60
2018-07-15T15:52:36.101Z,24.61
2018-07-15T15:55:04.548Z,24.60
2018-07-15T15:57:33.260Z,24.59
2018-07-15T16:00:01.611Z,24.58
2018-07-15T16:02:29.990Z,24.62
2018-07-15T16:04:58.329Z,24.64
2018-07-15T16:07:26.669Z,24.67
2018-07-15T16:09:55.013Z,24.66
2018-07-15T16:12:23.321Z,24.63
2018-07-15T16:14:51.656Z,24.64
2018-07-15T16:17:19.980Z,24.63
2018-07-15T16:19:48.308Z,24.60
2018-07-15T16:22:16.660Z,24.58
2018-07-15T16:24:45.016Z,24.58
2018-07-15T16:27:13.394Z,24.55
2018-07-15T16:29:41.709Z,24.57
2018-07-15T16:32:10.052Z,24.52
2018-07-15T16:34:38.373Z,24.52
2018-07-15T16:37:06.705Z,24.52
2018-07-15T16:39:35.061Z,24.50
2018-07-15T16:42:03.392Z,24.47
2018-07-15T16:44:31.724Z,24.49
2018-07-15T16:47:00.062Z,24.46
2018-07-15T16:49:28.413Z,24.48
2018-07-15T16:51:56.748Z,24.45
2018-07-15T16:54:25.774Z,24.44
2018-07-15T16:56:54.104Z,24.45
2018-07-15T16:59:22.425Z,24.42
2018-07-15T17:01:50.736Z,24.42
2018-07-15T17:04:19.055Z,24.40
2018-07-15T17:06:47.400Z,24.41
2018-07-15T17:09:15.840Z,24.41
2018-07-15T17:11:44.157Z,24.38
2018-07-15T17:14:12.547Z,24.39
2018-07-15T17:16:40.848Z,24.37
2018-07-15T17:19:09.197Z,24.38
2018-07-15T17:21:37.544Z,24.37
2018-07-15T17:24:05.916Z,24.36
2018-07-15T17:26:34.267Z,24.35
2018-07-15T17:29:02.613Z,24.33
2018-07-15T17:31:30.948Z,24.33
2018-07-15T17:33:59.261Z,24.33
2018-07-15T17:36:27.563Z,24.30
2018-07-15T17:38:55.893Z,24.29
2018-07-15T17:41:24.228Z,24.30
2018-07-15T17:43:52.593Z,24.28
2018-07-15T17:46:20.989Z,24.25
2018-07-15T17:48:49.277Z,24.25
2018-07-15T17:51:17.744Z,24.25
2018-07-15T17:53:46.080Z,24.24
2018-07-15T17:56:14.435Z,24.22
2018-07-15T17:58:42.825Z,24.19
2018-07-15T18:01:11.188Z,24.20
2018-07-15T18:03:39.535Z,24.18
2018-07-15T18:06:07.888Z,24.15
2018-07-15T18:08:36.232Z,24.13
2018-07-15T18:11:04.576Z,24.12
2018-07-15T18:13:32.976Z,24.12
2018-07-15T18:16:01.330Z,24.09
2018-07-15T18:18:29.652Z,24.09
2018-07-15T18:20:58.018Z,24.06
2018-07-15T18:23:26.357Z,24.05
2018-07-15T18:25:54.722Z,24.02
2018-07-15T18:28:23.073Z,24.01
2018-07-15T18:30:51.429Z,23.99
2018-07-15T18:33:19.816Z,24.00
2018-07-15T18:35:48.157Z,23.96
2018-07-15T18:38:16.504Z,23.92
2018-07-15T18:40:44.821Z,23.89
2018-07-15T18:43:13.148Z,23.88
2018-07-15T18:45:41.500Z,23.86
2018-07-15T18:48:09.827Z,23.84
2018-07-15T18:50:38.155Z,23.83
2018-07-15T18:53:06.535Z,23.84
2018-07-15T18:55:35.015Z,23.79
2018-07-15T18:58:03.367Z,23.78
2018-07-15T19:00:32.009Z,23.74
2018-07-15T19:03:00.354Z,23.70
2018-07-15T19:05:28.781Z,23.64
2018-07-15T19:07:57.122Z,23.61
2018-07-15T19:10:25.574Z,23.60
2018-07-15T19:12:53.981Z,23.57
2018-07-15T19:15:22.380Z,23.55
2018-07-15T19:17:50.734Z,23.51
2018-07-15T19:20:19.080Z,23.47
2018-07-15T19:22:47.424Z,23.43
2018-07-15T19:25:15.769Z,23.41
2018-07-15T19:27:44.118Z,23.36
2018-07-15T19:30:12.462Z,23.34
2018-07-15T19:32:40.918Z,23.29
2018-07-15T19:35:09.252Z,23.25
2018-07-15T19:37:37.603Z,23.21
2018-07-15T19:40:06.100Z,23.19
2018-07-15T19:42:34.588Z,23.14
2018-07-15T19:45:02.854Z,23.08
2018-07-15T19:47:31.210Z,23.06
2018-07-15T19:49:59.588Z,23.01
2018-07-15T19:52:27.962Z,22.97
2018-07-15T19:54:56.250Z,22.92
2018-07-15T19:57:24.593Z,22.84
2018-07-15T19:59:52.894Z,22.82
2018-07-15T20:02:21.269Z,22.76
2018-07-15T20:04:49.599Z,22.72
2018-07-15T20:07:17.963Z,22.66
2018-07-15T20:09:46.296Z,22.61
2018-07-15T20:12:14.663Z,22.53
2018-07-15T20:14:42.973Z,22.50
2018-07-15T20:17:11.323Z,22.47
2018-07-15T20:19:39.636Z,22.42
2018-07-15T20:22:08.120Z,22.34
2018-07-15T20:24:36.494Z,22.29
2018-07-15T20:27:07.367Z,22.24
2018-07-15T20:29:35.743Z,22.22
2018-07-15T20:32:04.060Z,22.16
2018-07-15T20:34:32.383Z,22.13
2018-07-15T20:37:00.766Z,22.06
2018-07-15T20:39:29.103Z,22.05
2018-07-15T20:41:57.437Z,21.97
2018-07-15T20:44:25.787Z,21.96
2018-07-15T20:46:54.126Z,21.89
2018-07-15T20:49:22.444Z,21.77
2018-07-15T20:51:50.870Z,21.76
2018-07-15T20:54:19.230Z,21.74
2018-07-15T20:56:47.587Z,21.60
2018-07-15T20:59:16.076Z,21.52
2018-07-15T21:01:44.400Z,21.48
2018-07-15T21:04:12.720Z,21.40
2018-07-15T21:06:41.081Z,21.31
2018-07-15T21:09:09.864Z,21.30
2018-07-15T21:11:38.763Z,21.22
2018-07-15T21:14:07.402Z,21.16
2018-07-15T21:16:36.108Z,21.13
2018-07-15T21:19:05.177Z,21.14
2018-07-15T21:21:33.525Z,21.05
2018-07-15T21:24:01.843Z,20.99
2018-07-15T21:26:30.287Z,20.97
2018-07-15T21:28:58.685Z,20.90
2018-07-15T21:31:27.004Z,20.85
2018-07-15T21:33:55.344Z,20.86
2018-07-15T21:36:23.653Z,20.77
2018-07-15T21:38:52.343Z,20.72
2018-07-15T21:41:20.878Z,20.72
2018-07-15T21:43:49.816Z,20.70
2018-07-15T21:46:18.768Z,20.71
2018-07-15T21:48:47.942Z,20.70
2018-07-15T21:51:16.315Z,20.69
2018-07-15T21:53:44.658Z,20.69
2018-07-15T21:56:12.992Z,20.66
2018-07-15T21:58:41.341Z,20.65
2018-07-15T22:01:09.700Z,20.67
2018-07-15T22:03:38.027Z,20.64
2018-07-15T22:06:11.576Z,20.65
2018-07-15T22:08:52.226Z,20.61
2018-07-15T22:11:21.223Z,20.60
2018-07-15T22:13:50.108Z,20.62
2018-07-15T22:16:19.045Z,20.60
2018-07-15T22:18:47.946Z,20.56
2018-07-15T22:21:16.940Z,20.53
2018-07-15T22:23:45.885Z,20.52
2018-07-15T22:26:14.793Z,20.54
2018-07-15T22:28:43.715Z,20.51
2018-07-15T22:31:12.700Z,20.53
2018-07-15T22:33:41.629Z,20.53
2018-07-15T22:36:10.577Z,20.51
2018-07-15T22:38:39.468Z,20.48
2018-07-15T22:41:08.264Z,20.51
2018-07-15T22:43:37.352Z,20.50
2018-07-15T22:46:06.438Z,20.52
2018-07-15T22:48:35.527Z,20.52
2018-07-15T22:51:04.576Z,20.52
2018-07-15T22:53:33.557Z,20.51
2018-07-15T22:56:02.529Z,20.48
2018-07-15T22:58:31.430Z,20.50
2018-07-15T23:01:00.360Z,20.50
2018-07-15T23:03:29.281Z,20.49
2018-07-15T23:06:09.330Z,20.49
2018-07-15T23:08:38.261Z,20.46
2018-07-15T23:11:07.218Z,20.49
2018-07-15T23:13:36.124Z,20.48
2018-07-15T23:16:05.021Z,20.45
2018-07-15T23:18:33.999Z,20.44
2018-07-15T23:21:02.725Z,20.41
2018-07-15T23:23:31.268Z,20.38
2018-07-15T23:25:59.571Z,20.37
2018-07-15T23:28:27.893Z,20.41
2018-07-15T23:30:56.221Z,20.38
2018-07-15T23:33:24.546Z,20.37
2018-07-15T23:35:52.884Z,20.37
2018-07-15T23:38:21.182Z,20.33
2018-07-15T23:40:49.510Z,20.31
2018-07-15T23:43:17.815Z,20.27
2018-07-15T23:45:46.147Z,20.28
2018-07-15T23:48:14.473Z,20.25
2018-07-15T23:50:42.821Z,20.18
2018-07-15T23:53:11.139Z,20.17
2018-07-15T23:55:39.443Z,20.14
2018-07-15T23:58:07.776Z,20.13
